sensor_id;sensor_type;location;lat;lon;timestamp;P1;durP1;ratioP1;P2;durP2;ratioP2
21166;SDS011;10741;52.272;9.580;2023-04-01T00:00:56;4.27;;;1.80;;
21166;SDS011;10741;52.272;9.580;2023-04-01T00:03:23;7.50;;;2.20;;
21166;SDS011;10741;52.272;9.580;2023-04-01T00:05:51;7.73;;;2.40;;
21166;SDS011;10741;52.272;9.580;2023-04-01T00:08:18;8.07;;;1.90;;
21166;SDS011;10741;52.272;9.580;2023-04-01T00:10:44;8.77;;;2.07;;
21166;SDS011;10741;52.272;9.580;2023-04-01T00:13:10;6.03;;;2.00;;
21166;SDS011;10741;52.272;9.580;2023-04-01T00:15:36;6.27;;;1.67;;
21166;SDS011;10741;52.272;9.580;2023-04-01T00:18:02;4.77;;;1.80;;
21166;SDS011;10741;52.272;9.580;2023-04-01T00:20:28;3.50;;;1.40;;
21166;SDS011;10741;52.272;9.580;2023-04-01T00:22:54;4.00;;;1.60;;
21166;SDS011;10741;52.272;9.580;2023-04-01T00:25:21;5.90;;;1.60;;
21166;SDS011;10741;52.272;9.580;2023-04-01T00:27:47;3.27;;;1.43;;
21166;SDS011;10741;52.272;9.580;2023-04-01T00:30:14;4.77;;;1.63;;
21166;SDS011;10741;52.272;9.580;2023-04-01T00:32:40;2.73;;;1.33;;
21166;SDS011;10741;52.272;9.580;2023-04-01T00:35:06;6.90;;;1.40;;
21166;SDS011;10741;52.272;9.580;2023-04-01T00:37:34;2.90;;;1.23;;
21166;SDS011;10741;52.272;9.580;2023-04-01T00:40:02;2.93;;;1.13;;
21166;SDS011;10741;52.272;9.580;2023-04-01T00:42:29;2.77;;;1.33;;
21166;SDS011;10741;52.272;9.580;2023-04-01T00:44:54;4.10;;;1.10;;
21166;SDS011;10741;52.272;9.580;2023-04-01T00:47:20;2.97;;;1.00;;
21166;SDS011;10741;52.272;9.580;2023-04-01T00:49:50;2.40;;;0.97;;
21166;SDS011;10741;52.272;9.580;2023-04-01T00:52:20;4.53;;;1.23;;
21166;SDS011;10741;52.272;9.580;2023-04-01T00:54:50;4.17;;;1.40;;
21166;SDS011;10741;52.272;9.580;2023-04-01T00:57:25;4.07;;;1.20;;
21166;SDS011;10741;52.272;9.580;2023-04-01T01:00:03;3.37;;;1.13;;
21166;SDS011;10741;52.272;9.580;2023-04-01T01:02:32;5.47;;;1.40;;
21166;SDS011;10741;52.272;9.580;2023-04-01T01:04:59;3.30;;;1.43;;
21166;SDS011;10741;52.272;9.580;2023-04-01T01:07:37;2.97;;;1.30;;
21166;SDS011;10741;52.272;9.580;2023-04-01T01:15:24;3.87;;;1.40;;
21166;SDS011;10741;52.272;9.580;2023-04-01T01:37:45;6.47;;;1.63;;
21166;SDS011;10741;52.272;9.580;2023-04-01T01:40:15;4.63;;;1.67;;
21166;SDS011;10741;52.272;9.580;2023-04-01T01:42:43;5.83;;;1.83;;
21166;SDS011;10741;52.272;9.580;2023-04-01T01:45:13;4.93;;;1.30;;
21166;SDS011;10741;52.272;9.580;2023-04-01T01:47:43;3.43;;;1.40;;
21166;SDS011;10741;52.272;9.580;2023-04-01T01:50:11;6.10;;;1.20;;
21166;SDS011;10741;52.272;9.580;2023-04-01T01:52:37;4.57;;;1.47;;
21166;SDS011;10741;52.272;9.580;2023-04-01T01:55:21;3.90;;;1.30;;
21166;SDS011;10741;52.272;9.580;2023-04-01T01:58:18;4.27;;;1.27;;
21166;SDS011;10741;52.272;9.580;2023-04-01T02:01:22;5.57;;;1.93;;
21166;SDS011;10741;52.272;9.580;2023-04-01T02:03:45;3.70;;;1.00;;
21166;SDS011;10741;52.272;9.580;2023-04-01T02:06:14;3.13;;;1.10;;
21166;SDS011;10741;52.272;9.580;2023-04-01T02:08:44;4.23;;;1.30;;
21166;SDS011;10741;52.272;9.580;2023-04-01T02:11:22;2.83;;;1.13;;
21166;SDS011;10741;52.272;9.580;2023-04-01T02:14:03;4.17;;;1.20;;
21166;SDS011;10741;52.272;9.580;2023-04-01T02:17:04;5.23;;;1.50;;
21166;SDS011;10741;52.272;9.580;2023-04-01T02:19:26;2.83;;;1.10;;
21166;SDS011;10741;52.272;9.580;2023-04-01T02:21:58;2.50;;;1.33;;
21166;SDS011;10741;52.272;9.580;2023-04-01T02:24:26;3.83;;;1.50;;
21166;SDS011;10741;52.272;9.580;2023-04-01T02:26:55;3.13;;;1.20;;
21166;SDS011;10741;52.272;9.580;2023-04-01T02:29:21;4.83;;;1.30;;
21166;SDS011;10741;52.272;9.580;2023-04-01T02:31:50;6.57;;;1.50;;
21166;SDS011;10741;52.272;9.580;2023-04-01T02:34:17;6.87;;;1.30;;
21166;SDS011;10741;52.272;9.580;2023-04-01T02:36:43;2.43;;;1.20;;
21166;SDS011;10741;52.272;9.580;2023-04-01T02:39:09;4.37;;;1.20;;
21166;SDS011;10741;52.272;9.580;2023-04-01T02:41:42;6.23;;;1.43;;
21166;SDS011;10741;52.272;9.580;2023-04-01T02:44:09;2.40;;;1.40;;
21166;SDS011;10741;52.272;9.580;2023-04-01T02:46:36;4.57;;;1.40;;
21166;SDS011;10741;52.272;9.580;2023-04-01T02:49:03;3.53;;;1.20;;
21166;SDS011;10741;52.272;9.580;2023-04-01T02:51:28;6.80;;;1.40;;
21166;SDS011;10741;52.272;9.580;2023-04-01T02:53:54;4.30;;;1.10;;
21166;SDS011;10741;52.272;9.580;2023-04-01T02:56:20;5.80;;;1.30;;
21166;SDS011;10741;52.272;9.580;2023-04-01T02:58:46;4.27;;;1.00;;
21166;SDS011;10741;52.272;9.580;2023-04-01T03:01:12;3.67;;;1.20;;
21166;SDS011;10741;52.272;9.580;2023-04-01T03:03:38;5.80;;;1.00;;
21166;SDS011;10741;52.272;9.580;2023-04-01T03:06:07;2.37;;;0.90;;
21166;SDS011;10741;52.272;9.580;2023-04-01T03:08:34;4.80;;;1.23;;
21166;SDS011;10741;52.272;9.580;2023-04-01T03:11:00;2.87;;;1.07;;
21166;SDS011;10741;52.272;9.580;2023-04-01T03:13:26;3.90;;;1.20;;
21166;SDS011;10741;52.272;9.580;2023-04-01T03:15:52;4.00;;;1.37;;
21166;SDS011;10741;52.272;9.580;2023-04-01T03:18:18;3.90;;;1.10;;
21166;SDS011;10741;52.272;9.580;2023-04-01T03:20:44;4.97;;;1.10;;
21166;SDS011;10741;52.272;9.580;2023-04-01T03:23:10;4.17;;;1.10;;
21166;SDS011;10741;52.272;9.580;2023-04-01T03:25:36;3.13;;;0.80;;
21166;SDS011;10741;52.272;9.580;2023-04-01T03:28:02;3.00;;;1.13;;
21166;SDS011;10741;52.272;9.580;2023-04-01T03:30:28;3.33;;;1.10;;
21166;SDS011;10741;52.272;9.580;2023-04-01T03:32:57;4.03;;;1.00;;
21166;SDS011;10741;52.272;9.580;2023-04-01T03:35:24;2.93;;;0.97;;
21166;SDS011;10741;52.272;9.580;2023-04-01T03:37:50;5.93;;;1.10;;
21166;SDS011;10741;52.272;9.580;2023-04-01T03:40:16;3.83;;;1.20;;
21166;SDS011;10741;52.272;9.580;2023-04-01T03:42:42;3.23;;;1.10;;
21166;SDS011;10741;52.272;9.580;2023-04-01T03:45:08;5.13;;;1.67;;
21166;SDS011;10741;52.272;9.580;2023-04-01T03:47:35;5.60;;;1.40;;
21166;SDS011;10741;52.272;9.580;2023-04-01T03:50:01;2.67;;;1.30;;
21166;SDS011;10741;52.272;9.580;2023-04-01T03:52:27;3.00;;;1.40;;
21166;SDS011;10741;52.272;9.580;2023-04-01T03:54:52;4.30;;;1.33;;
21166;SDS011;10741;52.272;9.580;2023-04-01T03:57:18;3.63;;;1.20;;
21166;SDS011;10741;52.272;9.580;2023-04-01T03:59:44;5.40;;;1.53;;
21166;SDS011;10741;52.272;9.580;2023-04-01T04:02:09;4.10;;;1.20;;
21166;SDS011;10741;52.272;9.580;2023-04-01T04:04:35;3.30;;;1.33;;
21166;SDS011;10741;52.272;9.580;2023-04-01T04:07:01;2.73;;;1.40;;
21166;SDS011;10741;52.272;9.580;2023-04-01T04:09:27;2.77;;;1.30;;
21166;SDS011;10741;52.272;9.580;2023-04-01T04:11:54;6.03;;;1.23;;
21166;SDS011;10741;52.272;9.580;2023-04-01T04:14:20;3.87;;;1.40;;
21166;SDS011;10741;52.272;9.580;2023-04-01T04:16:46;4.43;;;1.47;;
21166;SDS011;10741;52.272;9.580;2023-04-01T04:19:11;5.47;;;1.53;;
21166;SDS011;10741;52.272;9.580;2023-04-01T04:21:39;1.90;;;1.30;;
21166;SDS011;10741;52.272;9.580;2023-04-01T04:24:05;5.60;;;1.13;;
21166;SDS011;10741;52.272;9.580;2023-04-01T04:26:31;4.57;;;1.30;;
21166;SDS011;10741;52.272;9.580;2023-04-01T04:28:57;2.43;;;1.20;;
21166;SDS011;10741;52.272;9.580;2023-04-01T04:31:23;4.67;;;1.37;;
21166;SDS011;10741;52.272;9.580;2023-04-01T04:33:50;4.07;;;1.33;;
21166;SDS011;10741;52.272;9.580;2023-04-01T04:36:16;3.13;;;1.23;;
21166;SDS011;10741;52.272;9.580;2023-04-01T04:38:43;3.23;;;1.17;;
21166;SDS011;10741;52.272;9.580;2023-04-01T04:41:12;4.00;;;1.70;;
21166;SDS011;10741;52.272;9.580;2023-04-01T04:43:39;3.53;;;1.53;;
21166;SDS011;10741;52.272;9.580;2023-04-01T04:46:07;3.53;;;1.20;;
21166;SDS011;10741;52.272;9.580;2023-04-01T04:48:33;3.17;;;1.30;;
21166;SDS011;10741;52.272;9.580;2023-04-01T04:50:59;3.40;;;1.27;;
21166;SDS011;10741;52.272;9.580;2023-04-01T04:53:25;4.23;;;1.40;;
21166;SDS011;10741;52.272;9.580;2023-04-01T04:55:51;5.17;;;1.33;;
21166;SDS011;10741;52.272;9.580;2023-04-01T04:58:17;4.87;;;1.27;;
21166;SDS011;10741;52.272;9.580;2023-04-01T05:00:43;3.40;;;1.40;;
21166;SDS011;10741;52.272;9.580;2023-04-01T05:03:10;2.70;;;1.20;;
21166;SDS011;10741;52.272;9.580;2023-04-01T05:05:36;2.47;;;1.20;;
21166;SDS011;10741;52.272;9.580;2023-04-01T05:08:02;2.83;;;1.00;;
21166;SDS011;10741;52.272;9.580;2023-04-01T05:10:28;2.90;;;1.00;;
21166;SDS011;10741;52.272;9.580;2023-04-01T05:12:55;3.60;;;1.17;;
21166;SDS011;10741;52.272;9.580;2023-04-01T05:15:21;2.33;;;1.20;;
21166;SDS011;10741;52.272;9.580;2023-04-01T05:17:47;3.80;;;1.20;;
21166;SDS011;10741;52.272;9.580;2023-04-01T05:20:13;2.83;;;1.20;;
21166;SDS011;10741;52.272;9.580;2023-04-01T05:22:39;4.17;;;1.30;;
21166;SDS011;10741;52.272;9.580;2023-04-01T05:25:06;1.00;;;0.90;;
21166;SDS011;10741;52.272;9.580;2023-04-01T05:27:31;4.47;;;1.20;;
21166;SDS011;10741;52.272;9.580;2023-04-01T05:29:57;2.20;;;0.93;;
21166;SDS011;10741;52.272;9.580;2023-04-01T05:32:24;3.03;;;1.03;;
21166;SDS011;10741;52.272;9.580;2023-04-01T05:34:51;2.40;;;0.87;;
21166;SDS011;10741;52.272;9.580;2023-04-01T05:37:17;4.73;;;1.30;;
21166;SDS011;10741;52.272;9.580;2023-04-01T05:39:43;2.17;;;0.87;;
21166;SDS011;10741;52.272;9.580;2023-04-01T05:42:08;3.77;;;0.97;;
21166;SDS011;10741;52.272;9.580;2023-04-01T05:44:34;2.43;;;1.53;;
21166;SDS011;10741;52.272;9.580;2023-04-01T05:47:01;7.87;;;3.80;;
21166;SDS011;10741;52.272;9.580;2023-04-01T05:49:28;3.93;;;2.57;;
21166;SDS011;10741;52.272;9.580;2023-04-01T05:51:53;5.60;;;5.00;;
21166;SDS011;10741;52.272;9.580;2023-04-01T05:54:19;11.83;;;9.90;;
21166;SDS011;10741;52.272;9.580;2023-04-01T05:56:45;14.57;;;9.67;;
21166;SDS011;10741;52.272;9.580;2023-04-01T05:59:11;7.67;;;6.00;;
21166;SDS011;10741;52.272;9.580;2023-04-01T06:01:38;3.90;;;3.43;;
21166;SDS011;10741;52.272;9.580;2023-04-01T06:04:04;4.20;;;3.80;;
21166;SDS011;10741;52.272;9.580;2023-04-01T06:06:30;5.43;;;3.10;;
21166;SDS011;10741;52.272;9.580;2023-04-01T06:08:58;4.03;;;3.00;;
21166;SDS011;10741;52.272;9.580;2023-04-01T06:14:23;2.33;;;1.70;;
21166;SDS011;10741;52.272;9.580;2023-04-01T06:25:02;4.20;;;1.10;;
21166;SDS011;10741;52.272;9.580;2023-04-01T06:33:02;1.93;;;1.07;;
21166;SDS011;10741;52.272;9.580;2023-04-01T06:38:18;2.37;;;0.70;;
21166;SDS011;10741;52.272;9.580;2023-04-01T06:41:17;1.43;;;0.60;;
21166;SDS011;10741;52.272;9.580;2023-04-01T06:46:20;3.60;;;0.93;;
21166;SDS011;10741;52.272;9.580;2023-04-01T06:54:40;2.23;;;0.77;;
21166;SDS011;10741;52.272;9.580;2023-04-01T06:59:51;0.90;;;0.40;;
21166;SDS011;10741;52.272;9.580;2023-04-01T07:02:25;1.00;;;0.57;;
21166;SDS011;10741;52.272;9.580;2023-04-01T07:04:59;1.87;;;0.60;;
21166;SDS011;10741;52.272;9.580;2023-04-01T07:07:37;1.27;;;0.60;;
21166;SDS011;10741;52.272;9.580;2023-04-01T07:10:15;1.27;;;0.53;;
21166;SDS011;10741;52.272;9.580;2023-04-01T07:17:45;1.93;;;0.70;;
21166;SDS011;10741;52.272;9.580;2023-04-01T07:20:16;1.47;;;0.60;;
21166;SDS011;10741;52.272;9.580;2023-04-01T07:22:45;3.90;;;0.80;;
21166;SDS011;10741;52.272;9.580;2023-04-01T07:25:15;2.27;;;0.63;;
21166;SDS011;10741;52.272;9.580;2023-04-01T07:27:50;2.03;;;0.60;;
21166;SDS011;10741;52.272;9.580;2023-04-01T07:33:39;1.03;;;0.60;;
21166;SDS011;10741;52.272;9.580;2023-04-01T07:53:03;3.40;;;0.50;;
21166;SDS011;10741;52.272;9.580;2023-04-01T08:13:08;3.13;;;1.00;;
21166;SDS011;10741;52.272;9.580;2023-04-01T08:18:42;2.80;;;0.60;;
21166;SDS011;10741;52.272;9.580;2023-04-01T08:21:35;2.43;;;0.63;;
21166;SDS011;10741;52.272;9.580;2023-04-01T08:27:09;1.23;;;0.60;;
21166;SDS011;10741;52.272;9.580;2023-04-01T08:30:06;1.23;;;0.70;;
21166;SDS011;10741;52.272;9.580;2023-04-01T08:35:30;2.30;;;0.60;;
21166;SDS011;10741;52.272;9.580;2023-04-01T08:38:07;1.50;;;0.57;;
21166;SDS011;10741;52.272;9.580;2023-04-01T08:40:59;1.23;;;0.40;;
21166;SDS011;10741;52.272;9.580;2023-04-01T08:43:51;1.47;;;0.80;;
21166;SDS011;10741;52.272;9.580;2023-04-01T09:06:42;0.40;;;0.40;;
21166;SDS011;10741;52.272;9.580;2023-04-01T09:09:28;2.17;;;0.60;;
21166;SDS011;10741;52.272;9.580;2023-04-01T09:17:49;1.90;;;0.50;;
21166;SDS011;10741;52.272;9.580;2023-04-01T09:29:33;0.50;;;0.50;;
21166;SDS011;10741;52.272;9.580;2023-04-01T09:35:23;1.50;;;0.50;;
21166;SDS011;10741;52.272;9.580;2023-04-01T09:40:54;1.20;;;0.40;;
21166;SDS011;10741;52.272;9.580;2023-04-01T09:46:36;1.70;;;0.50;;
21166;SDS011;10741;52.272;9.580;2023-04-01T10:05:55;0.50;;;0.50;;
21166;SDS011;10741;52.272;9.580;2023-04-01T10:14:12;0.40;;;0.40;;
21166;SDS011;10741;52.272;9.580;2023-04-01T10:25:11;0.83;;;0.40;;
21166;SDS011;10741;52.272;9.580;2023-04-01T10:27:55;0.47;;;0.40;;
21166;SDS011;10741;52.272;9.580;2023-04-01T10:33:30;0.90;;;0.60;;
21166;SDS011;10741;52.272;9.580;2023-04-01T10:36:30;1.80;;;0.60;;
21166;SDS011;10741;52.272;9.580;2023-04-01T11:01:22;0.80;;;0.40;;
21166;SDS011;10741;52.272;9.580;2023-04-01T11:12:00;2.20;;;0.40;;
21166;SDS011;10741;52.272;9.580;2023-04-01T11:39:05;0.80;;;0.40;;
21166;SDS011;10741;52.272;9.580;2023-04-01T11:42:03;0.40;;;0.40;;
21166;SDS011;10741;52.272;9.580;2023-04-01T11:53:15;0.83;;;0.50;;
21166;SDS011;10741;52.272;9.580;2023-04-01T11:55:59;0.70;;;0.50;;
21166;SDS011;10741;52.272;9.580;2023-04-01T11:58:36;3.07;;;0.50;;
21166;SDS011;10741;52.272;9.580;2023-04-01T12:04:15;1.33;;;0.67;;
21166;SDS011;10741;52.272;9.580;2023-04-01T12:07:17;0.93;;;0.60;;
21166;SDS011;10741;52.272;9.580;2023-04-01T12:09:49;0.60;;;0.47;;
21166;SDS011;10741;52.272;9.580;2023-04-01T12:20:54;3.07;;;0.60;;
21166;SDS011;10741;52.272;9.580;2023-04-01T12:26:43;1.57;;;0.50;;
21166;SDS011;10741;52.272;9.580;2023-04-01T12:40:51;1.03;;;0.53;;
21166;SDS011;10741;52.272;9.580;2023-04-01T12:54:56;0.40;;;0.30;;
21166;SDS011;10741;52.272;9.580;2023-04-01T13:00:37;0.30;;;0.30;;
21166;SDS011;10741;52.272;9.580;2023-04-01T13:06:20;0.50;;;0.50;;
21166;SDS011;10741;52.272;9.580;2023-04-01T13:08:53;2.07;;;0.60;;
21166;SDS011;10741;52.272;9.580;2023-04-01T13:11:44;1.13;;;0.50;;
21166;SDS011;10741;52.272;9.580;2023-04-01T13:17:10;2.20;;;0.70;;
21166;SDS011;10741;52.272;9.580;2023-04-01T13:25:16;0.50;;;0.50;;
21166;SDS011;10741;52.272;9.580;2023-04-01T13:28:10;0.60;;;0.50;;
21166;SDS011;10741;52.272;9.580;2023-04-01T13:30:47;1.23;;;0.60;;
21166;SDS011;10741;52.272;9.580;2023-04-01T13:44:36;1.93;;;0.80;;
21166;SDS011;10741;52.272;9.580;2023-04-01T13:52:55;1.00;;;0.80;;
21166;SDS011;10741;52.272;9.580;2023-04-01T14:01:18;1.33;;;1.20;;
21166;SDS011;10741;52.272;9.580;2023-04-01T14:17:26;0.53;;;0.53;;
21166;SDS011;10741;52.272;9.580;2023-04-01T14:20:05;0.63;;;0.60;;
21166;SDS011;10741;52.272;9.580;2023-04-01T14:22:58;1.87;;;0.97;;
21166;SDS011;10741;52.272;9.580;2023-04-01T14:49:34;5.37;;;4.87;;
21166;SDS011;10741;52.272;9.580;2023-04-01T14:52:10;5.07;;;4.67;;
21166;SDS011;10741;52.272;9.580;2023-04-01T14:54:43;3.87;;;3.57;;
21166;SDS011;10741;52.272;9.580;2023-04-01T14:57:23;3.87;;;3.57;;
21166;SDS011;10741;52.272;9.580;2023-04-01T15:21:44;3.40;;;2.90;;
21166;SDS011;10741;52.272;9.580;2023-04-01T15:24:56;4.40;;;3.03;;
21166;SDS011;10741;52.272;9.580;2023-04-01T15:30:15;2.97;;;2.73;;
21166;SDS011;10741;52.272;9.580;2023-04-01T15:32:52;3.60;;;3.30;;
21166;SDS011;10741;52.272;9.580;2023-04-01T15:43:48;2.13;;;1.93;;
21166;SDS011;10741;52.272;9.580;2023-04-01T15:52:33;4.13;;;2.50;;
21166;SDS011;10741;52.272;9.580;2023-04-01T15:55:02;2.30;;;1.50;;
21166;SDS011;10741;52.272;9.580;2023-04-01T15:58:02;3.23;;;2.13;;
21166;SDS011;10741;52.272;9.580;2023-04-01T16:00:48;4.20;;;3.27;;
21166;SDS011;10741;52.272;9.580;2023-04-01T16:03:49;3.43;;;2.70;;
21166;SDS011;10741;52.272;9.580;2023-04-01T16:06:24;2.70;;;2.50;;
21166;SDS011;10741;52.272;9.580;2023-04-01T16:20:43;4.17;;;3.53;;
21166;SDS011;10741;52.272;9.580;2023-04-01T16:28:54;3.27;;;2.97;;
21166;SDS011;10741;52.272;9.580;2023-04-01T16:34:41;3.47;;;3.17;;
21166;SDS011;10741;52.272;9.580;2023-04-01T16:37:21;2.67;;;2.47;;
21166;SDS011;10741;52.272;9.580;2023-04-01T16:40:22;2.70;;;2.50;;
21166;SDS011;10741;52.272;9.580;2023-04-01T16:45:51;2.20;;;1.90;;
21166;SDS011;10741;52.272;9.580;2023-04-01T16:54:12;2.20;;;2.00;;
21166;SDS011;10741;52.272;9.580;2023-04-01T16:56:45;2.17;;;1.80;;
21166;SDS011;10741;52.272;9.580;2023-04-01T17:04:47;1.77;;;1.67;;
21166;SDS011;10741;52.272;9.580;2023-04-01T17:07:27;2.13;;;1.93;;
21166;SDS011;10741;52.272;9.580;2023-04-01T17:15:39;2.50;;;2.30;;
21166;SDS011;10741;52.272;9.580;2023-04-01T17:30:33;2.00;;;1.90;;
21166;SDS011;10741;52.272;9.580;2023-04-01T17:39:05;2.77;;;2.30;;
21166;SDS011;10741;52.272;9.580;2023-04-01T17:41:53;3.00;;;2.70;;
21166;SDS011;10741;52.272;9.580;2023-04-01T17:44:28;4.63;;;3.40;;
21166;SDS011;10741;52.272;9.580;2023-04-01T17:52:30;3.77;;;2.33;;
21166;SDS011;10741;52.272;9.580;2023-04-01T17:58:09;2.50;;;2.27;;
21166;SDS011;10741;52.272;9.580;2023-04-01T18:04:11;2.60;;;2.40;;
21166;SDS011;10741;52.272;9.580;2023-04-01T18:06:33;3.23;;;2.67;;
21166;SDS011;10741;52.272;9.580;2023-04-01T18:17:50;2.27;;;2.07;;
21166;SDS011;10741;52.272;9.580;2023-04-01T18:26:18;2.67;;;2.47;;
21166;SDS011;10741;52.272;9.580;2023-04-01T18:31:54;3.73;;;2.93;;
21166;SDS011;10741;52.272;9.580;2023-04-01T18:37:38;2.23;;;2.03;;
21166;SDS011;10741;52.272;9.580;2023-04-01T18:51:17;4.80;;;3.60;;
21166;SDS011;10741;52.272;9.580;2023-04-01T18:53:59;4.67;;;3.80;;
21166;SDS011;10741;52.272;9.580;2023-04-01T18:56:33;5.23;;;3.80;;
21166;SDS011;10741;52.272;9.580;2023-04-01T19:07:26;3.87;;;3.50;;
21166;SDS011;10741;52.272;9.580;2023-04-01T19:16:33;2.80;;;2.60;;
21166;SDS011;10741;52.272;9.580;2023-04-01T19:38:19;2.50;;;2.30;;
21166;SDS011;10741;52.272;9.580;2023-04-01T19:45:59;3.00;;;2.80;;
21166;SDS011;10741;52.272;9.580;2023-04-01T19:54:33;3.53;;;3.23;;
21166;SDS011;10741;52.272;9.580;2023-04-01T19:57:14;4.33;;;3.60;;
21166;SDS011;10741;52.272;9.580;2023-04-01T20:02:36;4.57;;;3.60;;
21166;SDS011;10741;52.272;9.580;2023-04-01T20:05:24;3.83;;;3.53;;
21166;SDS011;10741;52.272;9.580;2023-04-01T20:07:52;4.43;;;3.93;;
21166;SDS011;10741;52.272;9.580;2023-04-01T20:16:08;3.00;;;2.70;;
21166;SDS011;10741;52.272;9.580;2023-04-01T20:18:37;3.53;;;3.23;;
21166;SDS011;10741;52.272;9.580;2023-04-01T20:23:45;6.20;;;4.10;;
21166;SDS011;10741;52.272;9.580;2023-04-01T20:26:42;4.37;;;3.87;;
21166;SDS011;10741;52.272;9.580;2023-04-01T20:31:54;4.40;;;3.50;;
21166;SDS011;10741;52.272;9.580;2023-04-01T20:40:24;3.80;;;3.50;;
21166;SDS011;10741;52.272;9.580;2023-04-01T20:43:10;5.53;;;3.33;;
21166;SDS011;10741;52.272;9.580;2023-04-01T20:46:11;5.27;;;4.00;;
21166;SDS011;10741;52.272;9.580;2023-04-01T20:48:59;4.43;;;3.13;;
21166;SDS011;10741;52.272;9.580;2023-04-01T21:00:11;3.77;;;2.63;;
21166;SDS011;10741;52.272;9.580;2023-04-01T21:06:25;3.63;;;2.73;;
21166;SDS011;10741;52.272;9.580;2023-04-01T21:09:05;3.67;;;2.70;;
21166;SDS011;10741;52.272;9.580;2023-04-01T21:15:03;2.87;;;2.57;;
21166;SDS011;10741;52.272;9.580;2023-04-01T21:17:46;5.27;;;3.30;;
21166;SDS011;10741;52.272;9.580;2023-04-01T21:25:55;5.63;;;4.50;;
21166;SDS011;10741;52.272;9.580;2023-04-01T21:28:56;6.20;;;3.97;;
21166;SDS011;10741;52.272;9.580;2023-04-01T21:34:25;6.40;;;4.20;;
21166;SDS011;10741;52.272;9.580;2023-04-01T22:04:53;5.00;;;4.00;;
21166;SDS011;10741;52.272;9.580;2023-04-01T22:10:41;4.47;;;3.23;;
21166;SDS011;10741;52.272;9.580;2023-04-01T22:13:25;5.57;;;3.83;;
21166;SDS011;10741;52.272;9.580;2023-04-01T22:16:18;4.70;;;4.03;;
21166;SDS011;10741;52.272;9.580;2023-04-01T22:18:55;5.73;;;3.90;;
21166;SDS011;10741;52.272;9.580;2023-04-01T22:22:01;5.33;;;3.40;;
21166;SDS011;10741;52.272;9.580;2023-04-01T22:24:46;7.13;;;4.10;;
21166;SDS011;10741;52.272;9.580;2023-04-01T22:33:11;6.43;;;4.60;;
21166;SDS011;10741;52.272;9.580;2023-04-01T22:39:03;6.60;;;4.27;;
21166;SDS011;10741;52.272;9.580;2023-04-01T22:44:03;7.13;;;4.80;;
21166;SDS011;10741;52.272;9.580;2023-04-01T22:46:41;5.87;;;4.47;;
21166;SDS011;10741;52.272;9.580;2023-04-01T22:49:22;8.23;;;4.10;;
21166;SDS011;10741;52.272;9.580;2023-04-01T22:51:58;6.77;;;3.80;;
21166;SDS011;10741;52.272;9.580;2023-04-01T22:54:54;5.73;;;3.63;;
21166;SDS011;10741;52.272;9.580;2023-04-01T23:05:43;7.73;;;4.70;;
21166;SDS011;10741;52.272;9.580;2023-04-01T23:11:52;5.93;;;3.90;;
21166;SDS011;10741;52.272;9.580;2023-04-01T23:14:25;6.03;;;3.17;;
21166;SDS011;10741;52.272;9.580;2023-04-01T23:17:22;5.47;;;3.23;;
21166;SDS011;10741;52.272;9.580;2023-04-01T23:25:43;6.00;;;4.10;;
21166;SDS011;10741;52.272;9.580;2023-04-01T23:30:50;7.43;;;4.67;;
21166;SDS011;10741;52.272;9.580;2023-04-01T23:38:38;8.43;;;5.33;;
21166;SDS011;10741;52.272;9.580;2023-04-01T23:41:16;9.97;;;5.30;;
21166;SDS011;10741;52.272;9.580;2023-04-01T23:43:45;11.43;;;5.47;;
21166;SDS011;10741;52.272;9.580;2023-04-01T23:46:29;8.13;;;4.53;;
21166;SDS011;10741;52.272;9.580;2023-04-01T23:48:57;9.03;;;6.00;;
21166;SDS011;10741;52.272;9.580;2023-04-01T23:51:25;10.10;;;5.87;;
21166;SDS011;10741;52.272;9.580;2023-04-01T23:53:56;7.70;;;5.60;;
21166;SDS011;10741;52.272;9.580;2023-04-01T23:56:40;10.50;;;5.83;;
21166;SDS011;10741;52.272;9.580;2023-04-01T23:59:28;7.53;;;5.70;;
